Terminal Aerodrome Forecast
Issued by NWS Charleston, WV

Current Version | Previous Version | Text Only | Print | Product List | Glossary Off
Versions: 1 2 3 4 5 6 7 8 9 10 11 12 13 14 15 16 17 18 19 20 21 22 23 24 25 26 27 28 29 30 31 32 33 34

598
FTUS41 KRLX 290537
TAFPKB
TAF
KPKB 290537Z 2906/3006 00000KT 6SM BR SCT012 BKN035
      TEMPO 2906/2910 1SM BR SCT002 BKN012
     FM291000 00000KT 1/2SM FG OVC001
      TEMPO 2910/2914 3SM BR SCT002 BKN012
     FM291400 00000KT 3SM BR BKN003
     FM291500 00000KT 6SM BR BKN012
     FM291800 VRB03KT P6SM BKN035
     FM300400 00000KT 5SM BR BKN040=

USA.gov is the U.S. government's official web portal to all federal, state and local government web resources and services.